Time;durP1;ratioP1;P1;durP2;ratioP2;P2;SDS_P1;SDS_P2;PMS_P1;PMS_P2;Temp;Humidity;BMP_temperature;BMP_pressure;BME280_temperature;BME280_humidity;BME280_pressure;Samples;Min_cycle;Max_cycle;Signal;HPM_P1;HPM_P2
2021/12/30 00:01:56;;;;;;;26.90;6.10;;;11.80;99.90;;;;;;5114427;28;20164;-56
2021/12/30 00:04:22;;;;;;;26.63;6.57;;;11.80;99.90;;;;;;5113675;28;20208;-56
2021/12/30 00:06:48;;;;;;;23.98;4.72;;;11.80;99.90;;;;;;5113874;28;20165;-56
2021/12/30 00:09:14;;;;;;;23.75;4.60;;;11.80;99.90;;;;;;5113593;28;20518;-56
2021/12/30 00:11:41;;;;;;;19.77;4.50;;;11.80;99.90;;;;;;5113574;28;20269;-55
2021/12/30 00:14:07;;;;;;;20.65;5.32;;;11.80;99.90;;;;;;5113649;28;20180;-57
2021/12/30 00:16:33;;;;;;;22.75;3.80;;;11.70;99.90;;;;;;5112524;28;20175;-54
2021/12/30 00:19:00;;;;;;;21.60;4.70;;;11.80;99.90;;;;;;5113775;28;20267;-47
2021/12/30 00:21:26;;;;;;;20.98;5.30;;;11.70;99.90;;;;;;5113455;28;20171;-58
2021/12/30 00:23:51;;;;;;;25.73;3.83;;;11.80;99.90;;;;;;5114503;28;20668;-56
2021/12/30 00:26:18;;;;;;;18.17;4.93;;;11.80;99.90;;;;;;5114818;28;20571;-54
2021/12/30 00:28:43;;;;;;;19.45;5.82;;;11.80;99.90;;;;;;5114108;28;20221;-57
2021/12/30 00:31:09;;;;;;;26.45;5.32;;;11.80;99.90;;;;;;5114714;28;20161;-56
2021/12/30 00:33:35;;;;;;;18.95;4.75;;;11.80;99.90;;;;;;5114557;28;20232;-57
2021/12/30 00:36:03;;;;;;;21.25;4.93;;;11.90;99.90;;;;;;5114624;28;20164;-54
2021/12/30 00:38:29;;;;;;;26.42;5.43;;;11.80;99.90;;;;;;5114737;28;20200;-55
2021/12/30 00:40:55;;;;;;;20.60;5.18;;;11.80;99.90;;;;;;5114474;28;20203;-55
2021/12/30 00:43:21;;;;;;;29.08;5.63;;;11.80;99.90;;;;;;5114506;28;20209;-55
2021/12/30 00:45:47;;;;;;;17.08;5.25;;;11.80;99.90;;;;;;5114406;28;20681;-56
2021/12/30 00:48:12;;;;;;;20.55;5.10;;;11.80;99.90;;;;;;5114304;28;20639;-52
2021/12/30 00:50:39;;;;;;;19.95;5.15;;;11.80;99.90;;;;;;5114253;28;20184;-56
2021/12/30 00:53:06;;;;;;;19.50;4.25;;;11.80;99.90;;;;;;5114140;28;20161;-52
2021/12/30 00:55:32;;;;;;;18.70;5.38;;;11.80;99.90;;;;;;5114398;28;20169;-55
2021/12/30 00:57:58;;;;;;;19.27;4.88;;;11.90;99.90;;;;;;5114442;28;20169;-48
2021/12/30 01:00:24;;;;;;;25.67;4.70;;;11.90;99.90;;;;;;5114048;28;20169;-48
2021/12/30 01:02:50;;;;;;;19.45;4.90;;;11.90;99.90;;;;;;5113725;28;20185;-47
2021/12/30 01:05:16;;;;;;;15.60;4.65;;;11.90;99.90;;;;;;5113922;28;20578;-48
2021/12/30 01:07:41;;;;;;;22.15;5.22;;;11.90;99.90;;;;;;5113960;28;20164;-49
2021/12/30 01:10:10;;;;;;;20.15;4.68;;;11.80;99.90;;;;;;5113981;28;20218;-47
2021/12/30 01:12:35;;;;;;;20.38;4.90;;;11.90;99.90;;;;;;5114047;28;20191;-46
2021/12/30 01:15:07;;;;;;;27.17;4.93;;;11.90;99.90;;;;;;5113942;28;20161;-46
2021/12/30 01:20:12;;;;;;;25.23;4.55;;;11.80;99.90;;;;;;5113984;28;20164;-49
2021/12/30 01:22:38;;;;;;;18.88;4.80;;;11.90;99.90;;;;;;5113597;28;20184;-46
2021/12/30 01:25:07;;;;;;;21.40;5.32;;;11.90;99.90;;;;;;5113663;28;20169;-46
2021/12/30 01:27:36;;;;;;;19.02;4.78;;;11.90;99.90;;;;;;5113620;28;20188;-47
2021/12/30 01:30:04;;;;;;;18.13;3.75;;;11.90;99.90;;;;;;5113387;28;20600;-47
2021/12/30 01:32:29;;;;;;;23.95;6.82;;;11.90;99.90;;;;;;5114012;28;20255;-50
2021/12/30 01:34:55;;;;;;;15.02;4.72;;;11.90;99.90;;;;;;5113387;28;20196;-47
2021/12/30 01:37:23;;;;;;;23.20;4.30;;;11.90;99.90;;;;;;5095477;28;20180;-48
2021/12/30 01:39:49;;;;;;;18.30;4.40;;;11.90;99.90;;;;;;5113535;28;20173;-49
2021/12/30 01:42:15;;;;;;;20.55;4.00;;;11.90;99.90;;;;;;5094923;28;20172;-47
2021/12/30 01:44:41;;;;;;;24.70;4.72;;;11.90;99.90;;;;;;5113192;28;20169;-47
2021/12/30 01:47:07;;;;;;;23.50;4.80;;;11.90;99.90;;;;;;5113416;28;20631;-49
2021/12/30 01:49:33;;;;;;;19.55;4.50;;;12.00;99.90;;;;;;5094887;28;20537;-47
2021/12/30 01:51:59;;;;;;;20.15;4.75;;;12.00;99.90;;;;;;5113666;28;20597;-50
2021/12/30 01:54:27;;;;;;;18.40;4.32;;;12.00;99.90;;;;;;5113148;28;20172;-47
2021/12/30 01:56:53;;;;;;;16.73;4.78;;;12.00;99.90;;;;;;5113096;28;20211;-57
2021/12/30 01:59:21;;;;;;;18.38;4.28;;;12.00;99.90;;;;;;5112911;28;20196;-57
2021/12/30 02:01:46;;;;;;;16.95;4.05;;;12.00;99.90;;;;;;5112879;28;20176;-57
2021/12/30 02:04:13;;;;;;;17.30;4.38;;;12.00;99.90;;;;;;5112884;28;20250;-55
2021/12/30 02:06:39;;;;;;;17.33;4.28;;;12.00;99.90;;;;;;5112823;28;20160;-58
2021/12/30 02:09:04;;;;;;;18.02;4.85;;;12.00;99.90;;;;;;5112865;28;20173;-57
2021/12/30 02:11:30;;;;;;;16.10;3.58;;;12.00;99.90;;;;;;5112973;28;20224;-58
2021/12/30 02:13:56;;;;;;;13.73;3.95;;;12.10;99.90;;;;;;5113178;28;20181;-58
2021/12/30 02:16:22;;;;;;;15.95;3.90;;;12.10;99.90;;;;;;5112790;28;20248;-54
2021/12/30 02:18:48;;;;;;;15.10;4.10;;;12.20;99.90;;;;;;5112651;28;20202;-57
2021/12/30 02:21:14;;;;;;;15.85;4.65;;;12.20;99.90;;;;;;5112882;28;20169;-58
2021/12/30 02:23:40;;;;;;;11.75;4.25;;;12.20;99.90;;;;;;5112564;28;20207;-57
2021/12/30 02:26:13;;;;;;;12.18;4.43;;;12.30;99.90;;;;;;5112628;28;20560;-58
2021/12/30 02:28:39;;;;;;;18.67;4.28;;;12.30;99.90;;;;;;5112586;28;20167;-55
2021/12/30 02:31:09;;;;;;;17.08;4.72;;;12.30;99.90;;;;;;5112506;28;20638;-56
2021/12/30 02:33:35;;;;;;;13.43;3.70;;;12.30;99.90;;;;;;5112563;28;20164;-57
2021/12/30 02:36:01;;;;;;;13.45;4.53;;;12.40;99.90;;;;;;5112444;28;20175;-56
2021/12/30 02:38:27;;;;;;;14.02;4.10;;;12.40;99.90;;;;;;5112154;28;20262;-56
2021/12/30 02:40:56;;;;;;;13.52;4.20;;;12.40;99.90;;;;;;5112644;28;20627;-54
2021/12/30 02:43:25;;;;;;;13.10;3.67;;;12.40;99.90;;;;;;5112347;28;20188;-54
2021/12/30 02:45:51;;;;;;;18.20;4.78;;;12.40;99.90;;;;;;5112402;28;20688;-56
2021/12/30 02:48:23;;;;;;;17.70;5.32;;;12.30;99.90;;;;;;5112612;28;20605;-55
2021/12/30 02:50:51;;;;;;;10.60;3.95;;;12.30;99.90;;;;;;5112324;28;20172;-57
2021/12/30 02:53:17;;;;;;;18.30;5.43;;;12.30;99.90;;;;;;5112309;28;20173;-57
2021/12/30 02:55:44;;;;;;;16.10;5.53;;;12.30;99.90;;;;;;5112313;28;20161;-55
2021/12/30 02:58:12;;;;;;;15.77;5.78;;;12.30;99.90;;;;;;5112276;28;20709;-56
2021/12/30 03:00:39;;;;;;;18.60;6.55;;;12.40;99.90;;;;;;5112481;28;20173;-56
2021/12/30 03:03:04;;;;;;;18.05;5.97;;;12.40;99.90;;;;;;5112209;28;20569;-56
2021/12/30 03:05:30;;;;;;;23.52;6.75;;;12.40;99.90;;;;;;5112620;28;20172;-57
2021/12/30 03:07:57;;;;;;;16.38;6.78;;;12.40;99.90;;;;;;5112508;28;20177;-57
2021/12/30 03:10:25;;;;;;;12.70;5.40;;;12.40;99.90;;;;;;5112312;28;20172;-56
2021/12/30 03:12:56;;;;;;;16.05;6.03;;;12.40;99.90;;;;;;5112170;28;20168;-57
2021/12/30 03:15:22;;;;;;;20.38;7.40;;;12.30;99.90;;;;;;5112409;28;20186;-56
2021/12/30 03:17:49;;;;;;;19.88;7.18;;;12.40;99.90;;;;;;5111961;28;20167;-56
2021/12/30 03:20:14;;;;;;;15.15;7.38;;;12.40;99.90;;;;;;5112253;28;20164;-56
2021/12/30 03:22:41;;;;;;;18.42;6.70;;;12.40;99.90;;;;;;5112316;28;20193;-58
2021/12/30 03:25:09;;;;;;;16.58;5.93;;;12.40;99.90;;;;;;5112054;28;20172;-58
2021/12/30 03:27:36;;;;;;;12.38;6.03;;;12.40;99.90;;;;;;5112006;28;20252;-58
2021/12/30 03:30:07;;;;;;;14.63;6.28;;;12.40;99.90;;;;;;5112049;28;20196;-58
2021/12/30 03:32:33;;;;;;;16.85;6.70;;;12.40;99.90;;;;;;5111874;28;20242;-57
2021/12/30 03:34:59;;;;;;;10.60;7.22;;;12.40;99.90;;;;;;5112214;28;20632;-58
2021/12/30 03:37:24;;;;;;;12.07;6.32;;;12.50;99.90;;;;;;5111885;28;20164;-46
2021/12/30 03:39:50;;;;;;;18.85;6.45;;;12.40;99.90;;;;;;5111917;28;20510;-46
2021/12/30 03:42:16;;;;;;;14.65;6.05;;;12.40;99.90;;;;;;5112138;28;20176;-46
2021/12/30 03:44:43;;;;;;;12.52;6.60;;;12.50;99.90;;;;;;5111909;28;20184;-46
2021/12/30 03:47:13;;;;;;;16.20;6.85;;;12.40;99.90;;;;;;5111846;28;20164;-46
2021/12/30 03:49:43;;;;;;;12.65;7.07;;;12.50;99.90;;;;;;5112143;28;20169;-47
2021/12/30 03:52:09;;;;;;;16.77;7.45;;;12.50;99.90;;;;;;5115139;28;20169;-46
2021/12/30 03:54:35;;;;;;;14.80;6.53;;;12.40;99.90;;;;;;5115439;28;20516;-47
2021/12/30 03:57:00;;;;;;;9.95;5.90;;;12.40;99.90;;;;;;5115343;28;20172;-46
2021/12/30 03:59:26;;;;;;;10.60;6.03;;;12.50;99.90;;;;;;5115706;28;20557;-46
2021/12/30 04:01:51;;;;;;;12.73;5.28;;;12.50;99.90;;;;;;5115481;27;20247;-46
2021/12/30 04:04:17;;;;;;;9.38;5.55;;;12.40;99.90;;;;;;5115151;28;20667;-46
2021/12/30 04:06:42;;;;;;;11.60;5.45;;;12.40;99.90;;;;;;5115251;28;20199;-46
2021/12/30 04:09:08;;;;;;;9.98;4.85;;;12.40;99.90;;;;;;5115124;28;20200;-46
2021/12/30 04:11:35;;;;;;;9.57;5.18;;;12.40;99.90;;;;;;5115125;28;20209;-46
2021/12/30 04:14:02;;;;;;;12.25;4.80;;;12.40;99.90;;;;;;5115351;28;20226;-48
2021/12/30 04:16:27;;;;;;;12.88;3.92;;;12.50;99.90;;;;;;5115224;28;20177;-47
2021/12/30 04:18:53;;;;;;;8.25;3.35;;;12.50;99.90;;;;;;5115072;28;20172;-46
2021/12/30 04:21:20;;;;;;;5.25;2.83;;;12.50;99.90;;;;;;5114913;28;20160;-46
2021/12/30 04:23:45;;;;;;;6.60;3.03;;;12.50;99.90;;;;;;5114650;28;20296;-46
2021/12/30 04:26:11;;;;;;;6.32;2.85;;;12.50;99.90;;;;;;5114772;28;20240;-46
2021/12/30 04:28:37;;;;;;;6.57;2.30;;;12.50;99.90;;;;;;5096471;28;20627;-46
2021/12/30 04:31:04;;;;;;;6.70;2.08;;;12.60;99.90;;;;;;5114971;28;20189;-50
2021/12/30 04:33:30;;;;;;;7.93;2.45;;;12.50;99.90;;;;;;5115048;28;20164;-48
2021/12/30 04:35:56;;;;;;;4.00;2.45;;;12.60;99.90;;;;;;5115217;28;20563;-48
2021/12/30 04:38:27;;;;;;;4.43;2.33;;;12.60;99.90;;;;;;5114491;28;20650;-47
2021/12/30 04:40:54;;;;;;;2.38;1.90;;;12.60;99.90;;;;;;5114351;28;20221;-46
2021/12/30 04:43:19;;;;;;;3.03;2.75;;;12.60;99.90;;;;;;5096105;28;20211;-46
2021/12/30 04:45:47;;;;;;;4.28;3.30;;;12.70;99.90;;;;;;5114436;28;20164;-46
2021/12/30 04:48:14;;;;;;;5.88;2.95;;;12.70;99.90;;;;;;5096124;28;20169;-46
2021/12/30 04:50:40;;;;;;;3.70;3.08;;;12.80;99.90;;;;;;5114391;28;20294;-47
2021/12/30 04:53:05;;;;;;;4.47;3.45;;;12.80;99.90;;;;;;5114525;28;20255;-46
2021/12/30 04:55:31;;;;;;;5.18;4.00;;;12.90;99.90;;;;;;5114221;28;20525;-47
2021/12/30 04:57:56;;;;;;;3.42;3.13;;;12.90;99.90;;;;;;5114471;28;20628;-47
2021/12/30 05:00:22;;;;;;;4.20;3.47;;;13.00;99.90;;;;;;5113756;28;20161;-47
2021/12/30 05:03:07;;;;;;;3.78;3.47;;;13.10;99.90;;;;;;5095042;28;20260;-46
2021/12/30 05:05:36;;;;;;;3.05;2.47;;;13.10;99.90;;;;;;5113977;28;20556;-47
2021/12/30 05:08:01;;;;;;;4.85;3.70;;;13.10;99.90;;;;;;5114011;28;20639;-46
2021/12/30 05:10:27;;;;;;;5.55;2.78;;;13.20;99.90;;;;;;5114168;28;20228;-49
2021/12/30 05:12:53;;;;;;;4.15;2.97;;;13.20;99.90;;;;;;5113854;28;20177;-47
2021/12/30 05:15:18;;;;;;;3.15;2.85;;;13.30;99.90;;;;;;5113739;28;20613;-49
2021/12/30 05:17:44;;;;;;;4.03;3.28;;;13.20;99.90;;;;;;5113960;28;20173;-46
2021/12/30 05:20:12;;;;;;;3.90;3.10;;;13.30;99.90;;;;;;5113955;28;20244;-46
2021/12/30 05:22:38;;;;;;;3.20;2.90;;;13.30;99.90;;;;;;5113528;28;20553;-46
2021/12/30 05:25:04;;;;;;;2.85;2.58;;;13.30;99.90;;;;;;5113602;28;20172;-46
2021/12/30 05:27:29;;;;;;;3.35;2.80;;;13.30;99.90;;;;;;5113897;28;20181;-47
2021/12/30 05:29:55;;;;;;;4.20;2.90;;;13.40;99.90;;;;;;5113525;28;20165;-47
2021/12/30 05:32:20;;;;;;;3.00;2.80;;;13.40;99.90;;;;;;5113482;28;20237;-47
2021/12/30 05:34:46;;;;;;;2.97;2.33;;;13.40;99.90;;;;;;5113442;28;20243;-47
2021/12/30 05:37:11;;;;;;;4.18;2.67;;;13.50;99.90;;;;;;5113454;28;20169;-47
2021/12/30 05:39:41;;;;;;;3.58;2.63;;;13.40;99.90;;;;;;5113383;28;20252;-46
2021/12/30 05:42:07;;;;;;;3.60;3.03;;;13.50;99.90;;;;;;5113618;28;20187;-46
2021/12/30 05:44:33;;;;;;;2.95;2.75;;;13.50;99.90;;;;;;5113502;28;20223;-47
2021/12/30 05:46:58;;;;;;;2.83;2.60;;;13.50;99.90;;;;;;5113494;28;20169;-48
2021/12/30 05:49:24;;;;;;;2.60;2.40;;;13.50;99.90;;;;;;5113149;28;20165;-46
2021/12/30 05:51:49;;;;;;;2.28;2.08;;;13.60;99.90;;;;;;5113235;28;21153;-46
2021/12/30 05:54:15;;;;;;;2.80;2.47;;;13.60;99.90;;;;;;5113111;28;20666;-48
2021/12/30 05:56:40;;;;;;;2.67;2.47;;;13.60;99.90;;;;;;5113294;28;20159;-46
2021/12/30 05:59:06;;;;;;;3.40;2.47;;;13.50;99.90;;;;;;5094682;28;20185;-48
2021/12/30 06:01:32;;;;;;;3.65;2.30;;;13.60;99.90;;;;;;5112881;28;20172;-48
2021/12/30 06:03:57;;;;;;;3.00;2.58;;;13.60;99.90;;;;;;5113187;28;20540;-47
2021/12/30 06:06:24;;;;;;;2.95;2.75;;;13.60;99.90;;;;;;5113143;28;20172;-47
2021/12/30 06:08:50;;;;;;;3.00;2.78;;;13.60;99.90;;;;;;5112929;28;20297;-49
2021/12/30 06:11:16;;;;;;;2.45;2.25;;;13.60;99.90;;;;;;5112702;28;20220;-48
2021/12/30 06:13:42;;;;;;;3.50;2.95;;;13.60;99.90;;;;;;5112055;28;20168;-47
2021/12/30 06:16:07;;;;;;;2.53;2.33;;;13.60;99.90;;;;;;5112825;28;20171;-48
2021/12/30 06:18:33;;;;;;;2.40;2.20;;;13.60;99.90;;;;;;5112987;28;20175;-47
2021/12/30 06:20:58;;;;;;;2.63;2.42;;;13.70;99.90;;;;;;5112984;28;20632;-47
2021/12/30 06:23:24;;;;;;;2.47;2.25;;;13.70;99.90;;;;;;5112855;28;20235;-48
2021/12/30 06:25:49;;;;;;;2.55;2.35;;;13.70;99.90;;;;;;5112575;28;20533;-47
2021/12/30 06:28:15;;;;;;;4.90;2.45;;;13.70;99.90;;;;;;5112787;28;20244;-47
2021/12/30 06:30:41;;;;;;;2.75;2.55;;;13.70;99.90;;;;;;5112596;28;20160;-47
2021/12/30 06:33:06;;;;;;;3.95;2.92;;;13.70;99.90;;;;;;5112790;28;20168;-47
2021/12/30 06:35:34;;;;;;;2.72;2.53;;;13.70;99.90;;;;;;5112572;28;20169;-47
2021/12/30 06:38:01;;;;;;;2.70;2.42;;;13.70;99.90;;;;;;5112988;28;20180;-46
2021/12/30 06:40:27;;;;;;;2.70;2.50;;;13.70;99.90;;;;;;5112291;28;20609;-46
2021/12/30 06:42:53;;;;;;;2.50;2.30;;;13.70;99.90;;;;;;5112595;28;20226;-47
2021/12/30 06:45:19;;;;;;;3.13;2.58;;;13.70;99.90;;;;;;5112351;28;20683;-47
2021/12/30 06:47:45;;;;;;;2.78;2.25;;;13.70;99.90;;;;;;5112412;28;20192;-46
2021/12/30 06:50:13;;;;;;;4.95;2.38;;;13.70;99.90;;;;;;5112406;28;20530;-48
2021/12/30 06:52:40;;;;;;;6.13;2.15;;;13.70;99.90;;;;;;5112293;28;20524;-46
2021/12/30 06:55:07;;;;;;;3.78;2.28;;;13.70;99.90;;;;;;5112397;28;20176;-47
2021/12/30 06:57:34;;;;;;;2.65;2.45;;;13.70;99.90;;;;;;5112287;28;20190;-46
2021/12/30 06:59:59;;;;;;;2.33;2.15;;;13.70;99.90;;;;;;5112581;28;20252;-47
2021/12/30 07:02:25;;;;;;;2.25;1.90;;;13.80;99.90;;;;;;5112178;28;20303;-47
2021/12/30 07:04:50;;;;;;;2.30;1.75;;;13.70;99.90;;;;;;5112534;28;20186;-47
2021/12/30 07:07:16;;;;;;;3.55;1.85;;;13.80;99.90;;;;;;5112231;28;20173;-47
2021/12/30 07:09:42;;;;;;;5.10;1.90;;;13.70;99.90;;;;;;5112179;28;20165;-46
2021/12/30 07:12:08;;;;;;;1.50;1.40;;;13.80;99.90;;;;;;5111884;28;20227;-47
2021/12/30 07:14:33;;;;;;;2.95;1.60;;;13.70;99.90;;;;;;5112115;28;20629;-46
2021/12/30 07:16:59;;;;;;;2.22;1.73;;;13.70;99.90;;;;;;5112375;28;20173;-47
2021/12/30 07:19:24;;;;;;;3.85;1.50;;;13.70;99.90;;;;;;5112353;28;20213;-47
2021/12/30 07:21:50;;;;;;;1.77;1.55;;;13.70;99.90;;;;;;5112052;28;20512;-46
2021/12/30 07:24:16;;;;;;;1.17;1.17;;;13.70;99.90;;;;;;5112034;28;20204;-47
2021/12/30 07:26:42;;;;;;;2.22;1.63;;;13.70;99.90;;;;;;5115962;28;20161;-47
2021/12/30 07:29:07;;;;;;;1.25;1.15;;;13.70;99.90;;;;;;5115916;28;20695;-46
2021/12/30 07:31:33;;;;;;;1.45;1.35;;;13.70;99.90;;;;;;5116104;28;20169;-48
2021/12/30 07:33:59;;;;;;;1.48;1.38;;;13.70;99.90;;;;;;5116220;28;20172;-47
2021/12/30 07:36:24;;;;;;;2.65;1.23;;;13.70;99.90;;;;;;5115787;28;20157;-46
2021/12/30 07:38:50;;;;;;;1.38;1.27;;;13.70;99.90;;;;;;5115639;28;20168;-49
2021/12/30 07:41:16;;;;;;;1.30;1.20;;;13.80;99.90;;;;;;5115645;28;20161;-48
2021/12/30 07:43:42;;;;;;;1.70;1.27;;;13.80;99.90;;;;;;5097136;28;20668;-46
2021/12/30 07:46:09;;;;;;;1.55;1.40;;;13.80;99.90;;;;;;5115618;28;20165;-50
2021/12/30 07:48:35;;;;;;;1.10;1.10;;;13.80;99.90;;;;;;5115488;28;20161;-51
2021/12/30 07:51:01;;;;;;;1.42;1.33;;;13.80;99.90;;;;;;5115024;28;20200;-48
2021/12/30 07:53:26;;;;;;;2.65;1.30;;;13.80;99.90;;;;;;5115803;28;20193;-54
2021/12/30 07:55:52;;;;;;;1.90;1.55;;;13.80;99.90;;;;;;5115482;28;20169;-53
2021/12/30 07:58:18;;;;;;;1.50;1.40;;;13.80;99.90;;;;;;5097036;28;20165;-51
2021/12/30 08:00:43;;;;;;;1.67;1.40;;;13.80;99.90;;;;;;5115327;28;20179;-51
2021/12/30 08:03:09;;;;;;;1.77;1.65;;;13.80;99.90;;;;;;5115448;28;20208;-51
2021/12/30 08:05:34;;;;;;;2.05;1.40;;;13.80;99.90;;;;;;5115176;28;20524;-52
2021/12/30 08:08:00;;;;;;;1.40;1.20;;;13.80;99.90;;;;;;5115552;28;20217;-47
2021/12/30 08:10:28;;;;;;;1.50;1.40;;;13.80;99.90;;;;;;5115303;28;20168;-47
2021/12/30 08:12:54;;;;;;;2.10;1.40;;;13.80;99.90;;;;;;5115278;28;20205;-54
2021/12/30 08:15:21;;;;;;;6.10;2.13;;;13.80;99.90;;;;;;5114884;28;20632;-47
2021/12/30 08:17:49;;;;;;;1.70;1.60;;;13.80;99.90;;;;;;5115088;28;20190;-47
2021/12/30 08:20:16;;;;;;;1.95;1.58;;;13.80;99.90;;;;;;5115178;28;20180;-47
2021/12/30 08:22:42;;;;;;;1.70;1.60;;;13.80;99.90;;;;;;5115079;28;20172;-50
2021/12/30 08:25:09;;;;;;;1.60;1.50;;;13.80;99.90;;;;;;5114338;28;20172;-47
2021/12/30 08:27:35;;;;;;;3.83;1.65;;;13.80;99.90;;;;;;5114797;28;20172;-47
2021/12/30 08:30:01;;;;;;;3.35;1.50;;;13.80;99.90;;;;;;5114800;28;20251;-48
2021/12/30 08:32:27;;;;;;;1.73;1.58;;;13.80;99.90;;;;;;5096985;28;20192;-47
2021/12/30 08:34:52;;;;;;;1.63;1.33;;;13.80;99.90;;;;;;5114895;28;20172;-47
2021/12/30 08:37:18;;;;;;;2.50;1.60;;;13.80;99.90;;;;;;5113725;28;20161;-49
2021/12/30 08:39:44;;;;;;;1.40;1.30;;;13.80;99.90;;;;;;5096387;28;20256;-47
2021/12/30 08:42:20;;;;;;;1.75;1.30;;;13.80;99.90;;;;;;5114315;28;20627;-47
2021/12/30 08:44:47;;;;;;;1.63;1.50;;;13.90;99.90;;;;;;5113991;28;20686;-47
2021/12/30 08:47:13;;;;;;;1.27;1.20;;;13.90;99.90;;;;;;5114276;28;20161;-47
2021/12/30 08:49:41;;;;;;;3.78;1.63;;;13.90;99.90;;;;;;5114366;28;20169;-47
2021/12/30 08:52:08;;;;;;;1.67;1.42;;;13.80;99.90;;;;;;5113916;28;20628;-47
2021/12/30 08:54:35;;;;;;;2.65;1.60;;;13.90;99.90;;;;;;5113966;28;20179;-47
2021/12/30 08:57:01;;;;;;;3.60;1.30;;;13.90;99.90;;;;;;5114515;28;20180;-48
2021/12/30 08:59:26;;;;;;;1.77;1.30;;;13.90;99.90;;;;;;5114802;28;20539;-55
2021/12/30 09:01:52;;;;;;;2.10;1.33;;;13.90;99.90;;;;;;5114100;28;20226;-47
2021/12/30 09:04:17;;;;;;;3.35;1.45;;;13.90;99.90;;;;;;5113968;28;20206;-47
2021/12/30 09:06:43;;;;;;;1.55;1.42;;;13.90;99.90;;;;;;5114097;28;20161;-48
2021/12/30 09:09:09;;;;;;;1.33;1.20;;;14.00;99.90;;;;;;5113852;28;20165;-47
2021/12/30 09:11:34;;;;;;;2.33;1.52;;;14.00;99.90;;;;;;5113776;28;20279;-48
2021/12/30 09:14:00;;;;;;;2.28;1.50;;;13.90;99.90;;;;;;5114167;28;20521;-47
2021/12/30 09:16:25;;;;;;;1.52;1.15;;;14.00;99.90;;;;;;5114167;28;20164;-47
2021/12/30 09:18:51;;;;;;;1.40;1.30;;;14.00;99.90;;;;;;5113808;28;20173;-47
2021/12/30 09:21:16;;;;;;;1.70;1.60;;;14.00;99.90;;;;;;5113729;28;20176;-48
2021/12/30 09:23:42;;;;;;;2.95;1.50;;;14.10;99.90;;;;;;5113609;28;20586;-53
2021/12/30 09:26:07;;;;;;;1.48;1.38;;;14.10;99.90;;;;;;5113643;28;20214;-49
2021/12/30 09:28:33;;;;;;;1.92;1.27;;;14.20;99.90;;;;;;5113786;28;20168;-48
2021/12/30 09:30:59;;;;;;;2.15;1.55;;;14.20;99.90;;;;;;5113996;28;20161;-47
2021/12/30 09:33:25;;;;;;;2.10;1.48;;;14.20;99.90;;;;;;5113249;28;20632;-50
2021/12/30 09:35:51;;;;;;;2.50;1.60;;;14.20;99.90;;;;;;5113448;28;20202;-48
2021/12/30 09:38:16;;;;;;;2.45;1.40;;;14.20;99.90;;;;;;5113686;28;20175;-53
2021/12/30 09:40:42;;;;;;;1.50;1.40;;;14.30;99.90;;;;;;5113381;28;20248;-46
2021/12/30 09:43:09;;;;;;;1.40;1.30;;;14.30;99.90;;;;;;5113345;28;20249;-50
2021/12/30 09:45:38;;;;;;;1.30;1.20;;;14.30;99.90;;;;;;5113185;28;20255;-52
2021/12/30 09:48:07;;;;;;;2.13;1.20;;;14.30;99.90;;;;;;5113174;28;20157;-48
2021/12/30 09:50:40;;;;;;;3.28;1.02;;;14.40;99.90;;;;;;5113424;28;20191;-56
2021/12/30 09:53:06;;;;;;;1.42;1.33;;;14.40;99.90;;;;;;5094925;28;20623;-50
2021/12/30 09:55:33;;;;;;;1.48;1.20;;;14.40;99.90;;;;;;5113206;28;20214;-52
2021/12/30 09:57:59;;;;;;;1.30;1.20;;;14.50;99.90;;;;;;5113597;28;20200;-56
2021/12/30 10:00:25;;;;;;;1.55;1.45;;;14.50;99.90;;;;;;5113107;28;20188;-55
2021/12/30 10:02:51;;;;;;;1.40;1.27;;;14.50;99.90;;;;;;5112735;28;20241;-54
2021/12/30 10:05:21;;;;;;;1.50;1.40;;;14.50;99.90;;;;;;5094468;28;20663;-54
2021/12/30 10:07:47;;;;;;;1.38;1.27;;;14.50;99.90;;;;;;5112639;28;20632;-55
2021/12/30 10:10:34;;;;;;;1.58;1.42;;;14.50;99.90;;;;;;5112678;28;20561;-54
2021/12/30 10:13:13;;;;;;;1.38;1.00;;;14.60;99.90;;;;;;5113384;28;20172;-55
2021/12/30 10:15:48;;;;;;;1.92;1.30;;;14.60;99.90;;;;;;5112676;28;20164;-53
2021/12/30 10:18:17;;;;;;;1.85;1.27;;;14.60;99.90;;;;;;5112757;28;20160;-53
2021/12/30 10:20:43;;;;;;;1.40;0.98;;;14.60;99.90;;;;;;5112660;28;20164;-51
2021/12/30 10:23:09;;;;;;;1.45;1.35;;;14.60;99.90;;;;;;5112661;28;20200;-55
2021/12/30 10:25:37;;;;;;;1.52;1.40;;;14.60;99.90;;;;;;5112547;28;20193;-56
2021/12/30 10:28:35;;;;;;;1.30;1.20;;;14.70;99.90;;;;;;5112753;28;20570;-56
2021/12/30 10:31:16;;;;;;;1.90;1.45;;;14.70;99.90;;;;;;5112508;28;20496;-55
2021/12/30 10:34:04;;;;;;;1.52;1.42;;;14.70;99.90;;;;;;5112760;28;20164;-55
2021/12/30 10:36:31;;;;;;;1.60;1.50;;;14.80;99.90;;;;;;5112760;28;20539;-56
2021/12/30 10:39:15;;;;;;;2.55;1.40;;;14.80;99.90;;;;;;5112698;28;20716;-55
2021/12/30 10:41:41;;;;;;;3.67;1.50;;;14.70;99.90;;;;;;5094136;28;20172;-49
2021/12/30 10:44:06;;;;;;;1.95;1.40;;;14.70;99.90;;;;;;5112133;28;20216;-51
2021/12/30 10:46:32;;;;;;;1.80;1.58;;;14.70;99.90;;;;;;5112381;28;20176;-50
2021/12/30 10:49:00;;;;;;;1.67;1.58;;;14.80;99.90;;;;;;5094390;28;20175;-47
2021/12/30 10:51:32;;;;;;;1.67;1.40;;;14.80;99.90;;;;;;5112664;28;20521;-47
2021/12/30 10:53:58;;;;;;;7.82;1.70;;;14.80;99.90;;;;;;5112872;28;20247;-51
2021/12/30 10:56:28;;;;;;;2.70;1.80;;;14.80;99.90;;;;;;5111972;28;20167;-49
2021/12/30 10:59:07;;;;;;;2.67;1.92;;;14.80;99.90;;;;;;5112165;28;20538;-47
2021/12/30 11:01:37;;;;;;;2.95;1.95;;;14.80;99.90;;;;;;5116363;28;20686;-56
2021/12/30 11:04:03;;;;;;;7.38;1.92;;;14.90;99.90;;;;;;5116352;28;20237;-48
2021/12/30 11:06:29;;;;;;;2.70;1.73;;;14.90;99.90;;;;;;5116406;28;20161;-47
2021/12/30 11:09:15;;;;;;;3.28;1.75;;;14.90;99.90;;;;;;5116245;28;20542;-48
2021/12/30 11:11:53;;;;;;;8.13;2.22;;;14.90;99.90;;;;;;5115961;28;20216;-47
2021/12/30 11:14:21;;;;;;;4.28;1.77;;;14.90;99.90;;;;;;5097987;28;20163;-49
2021/12/30 11:17:08;;;;;;;3.72;1.67;;;14.90;99.90;;;;;;5116450;28;20229;-47
2021/12/30 11:19:38;;;;;;;2.70;1.70;;;14.90;99.90;;;;;;5116024;28;20506;-47
2021/12/30 11:22:08;;;;;;;7.40;2.47;;;14.90;99.90;;;;;;5116275;28;20169;-47
2021/12/30 11:24:35;;;;;;;4.70;2.28;;;14.80;99.90;;;;;;5116124;28;20290;-46
2021/12/30 11:27:03;;;;;;;4.85;2.13;;;14.90;99.90;;;;;;5115404;28;20569;-46
2021/12/30 11:29:30;;;;;;;5.50;2.35;;;14.80;99.90;;;;;;5116306;28;20264;-46
2021/12/30 11:31:56;;;;;;;6.13;1.95;;;14.80;99.90;;;;;;5115982;28;20624;-46
2021/12/30 11:34:23;;;;;;;4.15;2.13;;;14.80;99.90;;;;;;5097312;28;20179;-46
2021/12/30 11:36:50;;;;;;;5.95;2.20;;;14.80;99.90;;;;;;5115178;28;20233;-47
2021/12/30 11:39:18;;;;;;;6.25;2.05;;;14.80;99.90;;;;;;5115633;28;20175;-46
2021/12/30 11:42:02;;;;;;;3.22;2.10;;;14.90;99.90;;;;;;5115146;28;20176;-47
2021/12/30 11:44:33;;;;;;;3.38;2.60;;;14.90;99.90;;;;;;5115706;28;20231;-47
2021/12/30 11:47:00;;;;;;;3.00;1.80;;;14.90;99.90;;;;;;5115888;28;20157;-51
2021/12/30 11:49:57;;;;;;;4.55;2.42;;;14.90;99.90;;;;;;5116061;28;20176;-47
2021/12/30 11:52:55;;;;;;;2.03;1.60;;;15.00;99.90;;;;;;5115782;28;20237;-47
2021/12/30 11:55:42;;;;;;;3.70;1.60;;;15.00;99.90;;;;;;5115406;28;20168;-47
2021/12/30 11:58:29;;;;;;;3.28;1.90;;;15.10;99.90;;;;;;5115317;28;20169;-46
2021/12/30 12:00:55;;;;;;;3.05;2.28;;;15.00;99.90;;;;;;5115292;28;20173;-47
2021/12/30 12:03:40;;;;;;;1.90;1.65;;;15.10;99.90;;;;;;5115107;28;20668;-47
2021/12/30 12:06:26;;;;;;;5.70;1.70;;;15.00;99.90;;;;;;5115215;28;20247;-48
2021/12/30 12:09:13;;;;;;;3.28;1.90;;;15.10;99.90;;;;;;5096808;28;20164;-46
2021/12/30 12:11:41;;;;;;;3.13;1.90;;;15.10;99.90;;;;;;5112824;28;20216;-47
2021/12/30 12:14:25;;;;;;;2.38;1.42;;;15.10;99.90;;;;;;5114847;28;20210;-47
2021/12/30 12:16:59;;;;;;;2.70;1.60;;;15.10;99.90;;;;;;5114760;28;20225;-47
2021/12/30 12:19:40;;;;;;;3.38;1.48;;;15.10;99.90;;;;;;5114688;28;20647;-51
2021/12/30 12:22:10;;;;;;;3.30;1.60;;;15.10;99.90;;;;;;5114867;28;20179;-48
2021/12/30 12:24:38;;;;;;;1.65;1.55;;;15.10;99.90;;;;;;5114348;28;20196;-47
2021/12/30 12:27:30;;;;;;;4.40;1.58;;;15.10;99.90;;;;;;5114258;28;20667;-47
2021/12/30 12:29:57;;;;;;;5.18;2.08;;;15.10;99.90;;;;;;5101791;28;20191;-47
2021/12/30 12:32:34;;;;;;;1.67;1.27;;;15.10;99.90;;;;;;5114739;28;20168;-47
2021/12/30 12:35:20;;;;;;;5.65;2.17;;;15.10;99.90;;;;;;5114694;28;20248;-49
2021/12/30 12:37:49;;;;;;;2.90;1.52;;;15.10;99.90;;;;;;5096891;28;20253;-47
2021/12/30 12:40:20;;;;;;;3.45;1.80;;;15.10;99.90;;;;;;5113855;28;20183;-47
2021/12/30 12:42:51;;;;;;;3.03;1.70;;;15.10;99.90;;;;;;5114062;28;20161;-47
2021/12/30 12:45:32;;;;;;;5.28;1.80;;;15.10;99.90;;;;;;5114151;28;20181;-48
2021/12/30 12:48:16;;;;;;;1.83;1.40;;;15.10;99.90;;;;;;5114519;28;20160;-53
2021/12/30 12:50:50;;;;;;;2.75;1.60;;;15.10;99.90;;;;;;5114325;28;20164;-51